Time;durP1;ratioP1;P1;durP2;ratioP2;P2;SDS_P1;SDS_P2;PMS_P1;PMS_P2;Temp;Humidity;BMP_temperature;BMP_pressure;BME280_temperature;BME280_humidity;BME280_pressure;Samples;Min_cycle;Max_cycle;Signal;HPM_P1;HPM_P2
2023/10/26 00:01:23;;;;;;;28.33;17.17;;;10.90;99.90;;;;;;5031654;28;20179;-72
2023/10/26 00:03:49;;;;;;;33.23;17.70;;;10.90;99.90;;;;;;5031134;28;20304;-73
2023/10/26 00:06:15;;;;;;;26.83;17.20;;;10.90;99.90;;;;;;5031165;28;20171;-72
2023/10/26 00:08:40;;;;;;;31.23;19.80;;;10.90;99.90;;;;;;5030295;28;20175;-72
2023/10/26 00:11:06;;;;;;;32.60;19.93;;;11.00;99.90;;;;;;5031577;28;20183;-72
2023/10/26 00:13:32;;;;;;;34.27;20.80;;;10.90;99.90;;;;;;5031690;28;20199;-72
2023/10/26 00:15:57;;;;;;;34.37;20.33;;;10.90;99.90;;;;;;5031208;28;20238;-72
2023/10/26 00:18:23;;;;;;;28.83;18.87;;;10.90;99.90;;;;;;5031408;28;20600;-72
2023/10/26 00:20:49;;;;;;;37.47;21.50;;;10.90;99.90;;;;;;5031326;28;20175;-71
2023/10/26 00:23:15;;;;;;;38.23;22.53;;;10.90;99.90;;;;;;5030813;28;20712;-71
2023/10/26 00:25:40;;;;;;;39.63;22.67;;;10.90;99.90;;;;;;5031057;28;20171;-72
2023/10/26 00:28:06;;;;;;;39.83;22.13;;;10.90;99.90;;;;;;5031295;28;20182;-71
2023/10/26 00:30:32;;;;;;;39.70;21.10;;;10.90;99.90;;;;;;5031045;28;20302;-71
2023/10/26 00:32:58;;;;;;;36.13;22.13;;;10.90;99.90;;;;;;5030916;28;20706;-72
2023/10/26 00:35:24;;;;;;;35.90;21.40;;;10.90;99.90;;;;;;5030665;28;20175;-72
2023/10/26 00:37:50;;;;;;;33.87;20.80;;;11.00;99.90;;;;;;5031057;28;20171;-72
2023/10/26 00:40:16;;;;;;;38.17;22.27;;;10.90;99.90;;;;;;5031205;28;20561;-71
2023/10/26 00:42:41;;;;;;;42.60;23.00;;;10.90;99.90;;;;;;5030927;28;20179;-71
2023/10/26 00:45:07;;;;;;;43.07;22.13;;;10.90;99.90;;;;;;5030910;28;20186;-72
2023/10/26 00:47:33;;;;;;;40.33;21.97;;;10.90;99.90;;;;;;5031411;28;20188;-72
2023/10/26 00:50:00;;;;;;;35.87;20.40;;;10.90;99.90;;;;;;5031112;28;20288;-73
2023/10/26 00:52:26;;;;;;;38.00;20.80;;;10.90;99.90;;;;;;5030924;28;20215;-72
2023/10/26 00:54:52;;;;;;;36.47;20.40;;;10.90;99.90;;;;;;5030411;28;20188;-72
2023/10/26 00:57:21;;;;;;;39.63;21.10;;;10.90;99.90;;;;;;5029501;28;20547;-72
2023/10/26 00:59:48;;;;;;;30.37;18.17;;;10.90;99.90;;;;;;5030705;28;20183;-71
2023/10/26 01:02:16;;;;;;;24.43;14.53;;;11.00;99.90;;;;;;5030998;28;20172;-71
2023/10/26 01:04:42;;;;;;;25.83;15.03;;;10.90;99.90;;;;;;5031108;28;20203;-71
2023/10/26 01:07:07;;;;;;;22.87;14.80;;;10.90;99.90;;;;;;5030897;28;20187;-72
2023/10/26 01:09:33;;;;;;;21.27;13.70;;;10.90;99.90;;;;;;5030858;28;20204;-72
2023/10/26 01:11:59;;;;;;;24.00;13.60;;;10.90;99.90;;;;;;5031013;28;20167;-72
2023/10/26 01:14:27;;;;;;;23.87;14.77;;;10.90;99.90;;;;;;5030385;28;20187;-71
2023/10/26 01:16:54;;;;;;;24.20;15.13;;;10.90;99.90;;;;;;5030798;28;20664;-71
2023/10/26 01:19:19;;;;;;;26.47;15.03;;;10.80;99.90;;;;;;5030769;28;20183;-72
2023/10/26 01:21:50;;;;;;;23.23;15.23;;;10.80;99.90;;;;;;5030655;28;20795;-72
2023/10/26 01:24:15;;;;;;;24.57;15.13;;;10.80;99.90;;;;;;5030352;28;20195;-71
2023/10/26 01:26:41;;;;;;;26.87;16.13;;;10.70;99.90;;;;;;5030773;28;20177;-72
2023/10/26 01:29:07;;;;;;;27.50;16.67;;;10.70;99.90;;;;;;5030671;28;20192;-71
2023/10/26 01:31:32;;;;;;;31.80;18.07;;;10.70;99.90;;;;;;5030719;28;20246;-72
2023/10/26 01:33:58;;;;;;;29.30;16.70;;;10.70;99.90;;;;;;5030481;28;20267;-72
2023/10/26 01:36:24;;;;;;;27.43;16.10;;;10.70;99.90;;;;;;5030721;28;20175;-73
2023/10/26 01:38:49;;;;;;;22.83;12.97;;;10.70;99.90;;;;;;5030566;28;20222;-72
2023/10/26 01:41:15;;;;;;;25.97;14.87;;;10.70;99.90;;;;;;5030434;28;20164;-72
2023/10/26 01:43:40;;;;;;;26.17;15.03;;;10.70;99.90;;;;;;5030606;28;20184;-71
2023/10/26 01:46:06;;;;;;;29.30;17.23;;;10.70;99.90;;;;;;5030130;28;20214;-71
2023/10/26 01:48:32;;;;;;;31.00;17.50;;;10.70;99.90;;;;;;5034173;28;20218;-71
2023/10/26 01:50:57;;;;;;;31.83;17.33;;;10.70;99.90;;;;;;5033770;28;20676;-71
2023/10/26 01:53:24;;;;;;;28.67;17.87;;;10.70;99.90;;;;;;5034149;28;20277;-72
2023/10/26 01:55:50;;;;;;;28.90;17.20;;;10.70;99.90;;;;;;5033871;28;20168;-71
2023/10/26 01:58:15;;;;;;;29.63;17.33;;;10.70;99.90;;;;;;5033536;28;20222;-71
2023/10/26 02:00:41;;;;;;;30.93;17.80;;;10.80;99.90;;;;;;5034018;28;20637;-71
2023/10/26 02:03:07;;;;;;;33.40;20.57;;;10.80;99.90;;;;;;5033741;28;20532;-72
2023/10/26 02:05:33;;;;;;;31.87;18.73;;;10.80;99.90;;;;;;5033587;28;20175;-72
2023/10/26 02:07:59;;;;;;;32.33;19.27;;;10.80;99.90;;;;;;5033623;28;20179;-72
2023/10/26 02:10:29;;;;;;;32.77;19.87;;;10.80;99.90;;;;;;5033764;28;20429;-72
2023/10/26 02:12:58;;;;;;;31.03;18.17;;;10.80;99.90;;;;;;5033860;28;20179;-72
2023/10/26 02:15:24;;;;;;;36.00;19.47;;;10.80;99.90;;;;;;5033603;28;20178;-71
2023/10/26 02:17:49;;;;;;;33.43;19.60;;;10.90;99.90;;;;;;5033721;28;20222;-71
2023/10/26 02:20:15;;;;;;;33.33;18.90;;;10.90;99.90;;;;;;5033492;28;20179;-72
2023/10/26 02:22:41;;;;;;;34.93;18.77;;;10.90;99.90;;;;;;5033059;28;20341;-72
2023/10/26 02:25:07;;;;;;;30.43;19.57;;;10.90;99.90;;;;;;5033116;28;20178;-73
2023/10/26 02:27:33;;;;;;;34.87;19.03;;;10.90;99.90;;;;;;5033358;28;20583;-72
2023/10/26 02:29:59;;;;;;;31.97;20.63;;;10.80;99.90;;;;;;5033324;28;20694;-72
2023/10/26 02:32:25;;;;;;;33.30;19.87;;;10.80;99.90;;;;;;5033247;28;20202;-72
2023/10/26 02:34:51;;;;;;;36.80;21.20;;;10.70;99.90;;;;;;5032935;28;20219;-72
2023/10/26 02:37:19;;;;;;;35.47;21.30;;;10.70;99.90;;;;;;5033354;28;20213;-71
2023/10/26 02:39:46;;;;;;;37.27;23.40;;;10.70;99.90;;;;;;5033204;28;20176;-72
2023/10/26 02:42:12;;;;;;;42.23;23.53;;;10.60;99.90;;;;;;5033358;28;20175;-71
2023/10/26 02:44:37;;;;;;;44.87;23.20;;;10.60;99.90;;;;;;5032977;28;20202;-71
2023/10/26 02:47:03;;;;;;;41.63;23.20;;;10.60;99.90;;;;;;5033232;28;20171;-72
2023/10/26 02:49:30;;;;;;;37.70;22.47;;;10.70;99.90;;;;;;5033074;28;20658;-72
2023/10/26 02:51:56;;;;;;;35.63;22.63;;;10.60;99.90;;;;;;5033288;28;20175;-72
2023/10/26 02:54:23;;;;;;;40.20;22.57;;;10.70;99.90;;;;;;5032308;28;20188;-72
2023/10/26 02:56:48;;;;;;;38.00;23.60;;;10.60;99.90;;;;;;5033040;28;20539;-72
2023/10/26 02:59:14;;;;;;;33.90;21.50;;;10.50;99.90;;;;;;5032971;28;20182;-72
2023/10/26 03:01:39;;;;;;;34.77;22.53;;;10.50;99.90;;;;;;5032328;28;20246;-72
2023/10/26 03:04:05;;;;;;;37.00;22.33;;;10.50;99.90;;;;;;5031967;28;20218;-72
2023/10/26 03:06:39;;;;;;;35.90;22.73;;;10.50;99.90;;;;;;5032738;28;20655;-72
2023/10/26 03:09:05;;;;;;;38.60;23.07;;;10.50;99.90;;;;;;5032367;28;20183;-72
2023/10/26 03:11:31;;;;;;;35.43;21.90;;;10.50;99.90;;;;;;5032603;28;20179;-72
2023/10/26 03:13:57;;;;;;;39.23;23.40;;;10.40;99.90;;;;;;5032605;28;20187;-71
2023/10/26 03:16:22;;;;;;;39.33;23.30;;;10.40;99.90;;;;;;5032725;28;20246;-72
2023/10/26 03:18:48;;;;;;;37.83;22.83;;;10.40;99.90;;;;;;5032762;28;20210;-72
2023/10/26 03:21:16;;;;;;;34.93;22.93;;;10.40;99.90;;;;;;5032384;28;20210;-72
2023/10/26 03:23:41;;;;;;;39.97;23.23;;;10.40;99.90;;;;;;5032464;28;20274;-72
2023/10/26 03:26:11;;;;;;;34.63;21.73;;;10.40;99.90;;;;;;5032224;28;20712;-72
2023/10/26 03:28:37;;;;;;;35.10;22.83;;;10.30;99.90;;;;;;5032383;28;20180;-72
2023/10/26 03:31:02;;;;;;;38.63;23.97;;;10.40;99.90;;;;;;5032258;28;20297;-72
2023/10/26 03:33:28;;;;;;;32.03;20.60;;;10.40;99.90;;;;;;5032067;28;20195;-72
2023/10/26 03:35:54;;;;;;;34.80;21.30;;;10.40;99.90;;;;;;5032524;28;20278;-72
2023/10/26 03:38:19;;;;;;;35.13;22.50;;;10.40;99.90;;;;;;5032290;28;20186;-72
2023/10/26 03:40:45;;;;;;;37.17;22.53;;;10.50;99.90;;;;;;5032087;28;20207;-72
2023/10/26 03:43:10;;;;;;;34.23;22.47;;;10.50;99.90;;;;;;5012343;28;20285;-72
2023/10/26 03:45:36;;;;;;;36.07;21.40;;;10.50;99.90;;;;;;5012130;28;20172;-72
2023/10/26 03:48:01;;;;;;;32.83;20.80;;;10.50;99.90;;;;;;5012573;28;20678;-72
2023/10/26 03:50:27;;;;;;;35.93;22.40;;;10.50;99.90;;;;;;5012944;28;20212;-72
2023/10/26 03:52:53;;;;;;;32.67;21.73;;;10.50;99.90;;;;;;5031767;28;20199;-72
2023/10/26 03:55:19;;;;;;;36.03;21.60;;;10.40;99.90;;;;;;5031495;28;20168;-72
2023/10/26 03:57:48;;;;;;;32.20;21.57;;;10.50;99.90;;;;;;5031814;28;20512;-72
2023/10/26 04:00:15;;;;;;;38.33;21.90;;;10.50;99.90;;;;;;5031500;28;20176;-71
2023/10/26 04:02:40;;;;;;;37.73;22.97;;;10.40;99.90;;;;;;5031474;28;20176;-71
2023/10/26 04:05:06;;;;;;;32.17;21.40;;;10.40;99.90;;;;;;5031832;28;20182;-72
2023/10/26 04:07:33;;;;;;;35.90;21.33;;;10.40;99.90;;;;;;5031824;28;20176;-72
2023/10/26 04:09:59;;;;;;;35.33;21.33;;;10.30;99.90;;;;;;5031398;28;20199;-72
2023/10/26 04:12:24;;;;;;;39.00;20.77;;;10.30;99.90;;;;;;5031676;28;20584;-72
2023/10/26 04:14:50;;;;;;;31.83;20.40;;;10.30;99.90;;;;;;5031249;28;20222;-71
2023/10/26 04:17:16;;;;;;;34.77;21.37;;;10.20;99.90;;;;;;5031540;28;20250;-71
2023/10/26 04:19:41;;;;;;;42.03;23.70;;;10.20;99.90;;;;;;5031567;28;20171;-71
2023/10/26 04:22:07;;;;;;;42.50;22.40;;;10.10;99.90;;;;;;5031521;28;20180;-71
2023/10/26 04:24:33;;;;;;;37.60;23.03;;;10.10;99.90;;;;;;5031080;28;20272;-72
2023/10/26 04:26:59;;;;;;;39.37;22.27;;;10.00;99.90;;;;;;5031330;28;20178;-73
2023/10/26 04:29:25;;;;;;;37.83;22.23;;;10.10;99.90;;;;;;5031060;28;20246;-73
2023/10/26 04:31:50;;;;;;;42.77;23.63;;;10.00;99.90;;;;;;5031227;28;20199;-72
2023/10/26 04:34:16;;;;;;;35.63;21.83;;;10.00;99.90;;;;;;5031072;28;20207;-71
2023/10/26 04:36:42;;;;;;;36.53;22.43;;;10.00;99.90;;;;;;5031350;28;20226;-71
2023/10/26 04:39:09;;;;;;;40.50;22.90;;;10.00;99.90;;;;;;5031271;28;20176;-72
2023/10/26 04:41:35;;;;;;;33.87;20.87;;;10.00;99.90;;;;;;5031480;28;20539;-72
2023/10/26 04:44:01;;;;;;;38.87;21.97;;;9.90;99.90;;;;;;5031179;28;20183;-72
2023/10/26 04:46:27;;;;;;;33.10;19.60;;;9.90;99.90;;;;;;5030934;28;20540;-72
2023/10/26 04:48:53;;;;;;;36.10;20.73;;;9.80;99.90;;;;;;5031273;28;20182;-72
2023/10/26 04:51:18;;;;;;;34.40;20.33;;;9.80;99.90;;;;;;5031226;28;20176;-72
2023/10/26 04:53:44;;;;;;;35.83;20.63;;;9.80;99.90;;;;;;5031181;28;20548;-72
2023/10/26 04:56:11;;;;;;;35.40;20.67;;;9.70;99.90;;;;;;5030982;28;20186;-72
2023/10/26 04:58:38;;;;;;;32.43;19.93;;;9.70;99.90;;;;;;5031286;28;20164;-73
2023/10/26 05:01:04;;;;;;;34.80;20.10;;;9.70;99.90;;;;;;5030790;28;20183;-72
2023/10/26 05:03:30;;;;;;;36.03;20.53;;;9.70;99.90;;;;;;5030722;28;20214;-72
2023/10/26 05:05:56;;;;;;;34.70;22.10;;;9.70;99.90;;;;;;5031067;28;20179;-72
2023/10/26 05:08:22;;;;;;;33.43;20.10;;;9.70;99.90;;;;;;5031019;28;20175;-72
2023/10/26 05:10:47;;;;;;;33.50;19.90;;;9.70;99.90;;;;;;5031032;28;20290;-72
2023/10/26 05:13:13;;;;;;;38.33;21.33;;;9.70;99.90;;;;;;5030930;28;20532;-72
2023/10/26 05:15:39;;;;;;;34.50;19.47;;;9.70;99.90;;;;;;5030497;28;20262;-72
2023/10/26 05:18:04;;;;;;;29.10;18.63;;;9.80;99.90;;;;;;5031159;28;20234;-72
2023/10/26 05:20:32;;;;;;;35.17;19.33;;;9.80;99.90;;;;;;5031003;28;20190;-72
2023/10/26 05:22:58;;;;;;;29.20;18.53;;;9.80;99.90;;;;;;5033704;28;20191;-73
2023/10/26 05:25:24;;;;;;;29.60;18.57;;;9.80;99.90;;;;;;5033783;28;20530;-72
2023/10/26 05:27:50;;;;;;;33.27;20.43;;;9.90;99.90;;;;;;5034500;28;20183;-72
2023/10/26 05:30:16;;;;;;;30.20;19.30;;;9.90;99.90;;;;;;5034369;28;20211;-72
2023/10/26 05:32:42;;;;;;;31.30;20.07;;;9.80;99.90;;;;;;5034519;28;20288;-72
2023/10/26 05:35:07;;;;;;;31.40;18.63;;;9.90;99.90;;;;;;5034352;28;20184;-72
2023/10/26 05:37:34;;;;;;;29.77;18.47;;;9.90;99.90;;;;;;5034599;28;20188;-72
2023/10/26 05:39:59;;;;;;;30.23;18.60;;;9.80;99.90;;;;;;5034366;28;20183;-72
2023/10/26 05:42:25;;;;;;;28.47;17.17;;;9.80;99.90;;;;;;5034373;28;20172;-72
2023/10/26 05:44:53;;;;;;;33.47;17.87;;;9.70;99.90;;;;;;5033939;28;20321;-72
2023/10/26 05:47:19;;;;;;;30.43;18.37;;;9.60;99.90;;;;;;5033803;28;20207;-72
2023/10/26 05:49:45;;;;;;;24.60;16.97;;;9.50;99.90;;;;;;5034180;28;20203;-72
2023/10/26 05:52:10;;;;;;;32.33;18.97;;;9.40;99.90;;;;;;5034305;28;20691;-72
2023/10/26 05:54:36;;;;;;;30.17;18.63;;;9.40;99.90;;;;;;5033824;28;20199;-72
2023/10/26 05:57:02;;;;;;;36.67;19.53;;;9.30;99.90;;;;;;5015091;28;20645;-72
2023/10/26 05:59:28;;;;;;;30.30;16.77;;;9.30;99.90;;;;;;5014503;28;20200;-71
2023/10/26 06:01:53;;;;;;;33.70;19.97;;;9.20;99.90;;;;;;5014190;28;20619;-72
2023/10/26 06:04:19;;;;;;;34.50;20.67;;;9.10;99.90;;;;;;5013573;28;20676;-72
2023/10/26 06:06:44;;;;;;;35.53;20.23;;;9.00;99.90;;;;;;5013893;28;20172;-72
2023/10/26 06:09:10;;;;;;;34.20;20.00;;;9.00;99.90;;;;;;5013696;28;20641;-72
2023/10/26 06:11:37;;;;;;;36.10;21.93;;;8.90;99.90;;;;;;5032509;28;20190;-72
2023/10/26 06:14:03;;;;;;;38.17;21.00;;;8.90;99.90;;;;;;5033451;28;20191;-72
2023/10/26 06:16:29;;;;;;;40.57;20.43;;;8.90;99.90;;;;;;5033316;28;20637;-72
2023/10/26 06:18:54;;;;;;;40.70;20.77;;;8.80;99.90;;;;;;5033443;28;20819;-72
2023/10/26 06:21:21;;;;;;;37.63;19.40;;;8.90;99.90;;;;;;5033284;28;20210;-72
2023/10/26 06:23:46;;;;;;;41.40;20.53;;;8.80;99.90;;;;;;5033352;28;20187;-72
2023/10/26 06:26:12;;;;;;;39.87;20.47;;;8.80;99.90;;;;;;5033198;28;20179;-72
2023/10/26 06:28:38;;;;;;;40.13;20.07;;;8.80;99.90;;;;;;5032802;28;20602;-72
2023/10/26 06:31:16;;;;;;;38.63;20.70;;;8.70;99.90;;;;;;5032970;28;20207;-71
2023/10/26 06:33:42;;;;;;;39.93;21.17;;;8.70;99.90;;;;;;5032729;28;20195;-72
2023/10/26 06:36:09;;;;;;;42.13;23.23;;;8.70;99.90;;;;;;5033190;28;20214;-72
2023/10/26 06:38:37;;;;;;;47.00;22.17;;;8.70;99.90;;;;;;5033190;28;20255;-71
2023/10/26 06:41:02;;;;;;;46.97;22.50;;;8.70;99.90;;;;;;5033065;28;20176;-71
2023/10/26 06:43:29;;;;;;;45.30;21.37;;;8.70;99.90;;;;;;5032660;28;20199;-71
2023/10/26 06:45:55;;;;;;;44.83;20.80;;;8.70;99.90;;;;;;5031683;28;20590;-71
2023/10/26 06:48:20;;;;;;;74.90;31.30;;;8.80;99.90;;;;;;5032883;28;20172;-71
2023/10/26 06:50:47;;;;;;;59.40;29.17;;;8.80;99.90;;;;;;5032742;28;20203;-71
2023/10/26 06:53:13;;;;;;;65.63;32.20;;;8.80;99.90;;;;;;5032647;28;20665;-71
2023/10/26 06:55:39;;;;;;;64.67;29.17;;;8.80;99.90;;;;;;5032548;28;20728;-71
2023/10/26 06:58:04;;;;;;;56.07;26.27;;;8.90;99.90;;;;;;5032936;28;20246;-71
2023/10/26 07:00:33;;;;;;;54.17;26.77;;;8.90;99.90;;;;;;5032070;28;20175;-72
2023/10/26 07:02:58;;;;;;;64.57;24.97;;;8.90;99.90;;;;;;5032442;28;20249;-72
2023/10/26 07:05:25;;;;;;;46.77;22.43;;;8.90;99.90;;;;;;5032117;28;20261;-71
2023/10/26 07:07:51;;;;;;;49.50;22.50;;;9.00;99.90;;;;;;5032690;28;20185;-71
2023/10/26 07:10:18;;;;;;;45.50;21.40;;;9.10;99.90;;;;;;5032542;28;20211;-71
2023/10/26 07:12:44;;;;;;;47.10;22.40;;;9.10;99.90;;;;;;5032198;28;20535;-71
2023/10/26 07:15:11;;;;;;;48.77;21.13;;;9.30;99.90;;;;;;5032007;28;20178;-71
2023/10/26 07:17:37;;;;;;;48.37;21.90;;;9.40;99.90;;;;;;5032119;28;20179;-71
2023/10/26 07:20:03;;;;;;;47.30;21.97;;;9.50;99.90;;;;;;5032417;28;20176;-71
2023/10/26 07:22:32;;;;;;;47.77;21.40;;;9.60;99.90;;;;;;5032127;28;20664;-71
2023/10/26 07:24:57;;;;;;;40.67;18.57;;;9.70;99.90;;;;;;5032209;28;20718;-71
2023/10/26 07:27:23;;;;;;;34.47;20.43;;;9.90;99.90;;;;;;5031761;28;20183;-71
2023/10/26 07:29:49;;;;;;;45.03;20.00;;;10.00;99.90;;;;;;5032030;28;20192;-71
2023/10/26 07:32:14;;;;;;;45.13;21.23;;;10.10;99.90;;;;;;5032253;28;20179;-71
2023/10/26 07:34:40;;;;;;;41.73;20.33;;;10.20;99.90;;;;;;5031841;28;20192;-71
2023/10/26 07:37:06;;;;;;;42.50;19.63;;;10.30;99.90;;;;;;5031974;28;20645;-71
2023/10/26 07:39:34;;;;;;;52.20;20.83;;;10.50;99.90;;;;;;5030424;28;20186;-71
2023/10/26 07:42:00;;;;;;;43.23;20.77;;;10.60;99.90;;;;;;5031526;28;20176;-71
2023/10/26 07:44:26;;;;;;;38.43;21.10;;;10.80;99.90;;;;;;5030862;28;20684;-71
2023/10/26 07:46:52;;;;;;;31.67;19.30;;;10.90;99.90;;;;;;5032224;28;20273;-71
2023/10/26 07:49:18;;;;;;;32.93;18.17;;;10.90;99.90;;;;;;5031319;28;20206;-71
2023/10/26 07:51:43;;;;;;;39.93;19.13;;;11.00;99.90;;;;;;5030705;28;20191;-71
2023/10/26 07:54:09;;;;;;;31.90;19.40;;;11.10;99.90;;;;;;5030992;28;20213;-71
2023/10/26 07:56:36;;;;;;;40.97;20.80;;;11.20;99.90;;;;;;5029670;28;20175;-71
2023/10/26 07:59:03;;;;;;;32.77;17.83;;;11.30;99.90;;;;;;5031254;28;20258;-71
2023/10/26 08:01:28;;;;;;;32.10;17.83;;;11.40;99.90;;;;;;5031184;28;20229;-72
2023/10/26 08:03:54;;;;;;;29.17;18.87;;;11.50;99.90;;;;;;5031231;28;20719;-72
2023/10/26 08:06:20;;;;;;;36.40;19.87;;;11.50;99.90;;;;;;5030794;28;20552;-72
2023/10/26 08:08:46;;;;;;;33.50;20.00;;;11.60;99.90;;;;;;5031575;28;20515;-72
2023/10/26 08:11:13;;;;;;;32.70;19.30;;;11.70;99.90;;;;;;5031543;28;20253;-72
2023/10/26 08:13:40;;;;;;;29.47;18.07;;;11.80;99.90;;;;;;5031246;28;20187;-72
2023/10/26 08:16:05;;;;;;;30.83;18.87;;;11.90;99.90;;;;;;5031181;28;20778;-72
2023/10/26 08:18:32;;;;;;;32.07;18.67;;;12.00;99.90;;;;;;5031265;28;20254;-72
2023/10/26 08:20:57;;;;;;;33.17;18.53;;;12.10;99.90;;;;;;5031384;28;20554;-72
2023/10/26 08:23:23;;;;;;;29.17;18.70;;;12.20;99.90;;;;;;5031001;28;20198;-72
2023/10/26 08:25:48;;;;;;;35.83;19.83;;;12.40;99.90;;;;;;5031051;28;20175;-72
2023/10/26 08:28:15;;;;;;;28.10;18.63;;;12.50;99.90;;;;;;5031320;28;20182;-72
2023/10/26 08:30:41;;;;;;;26.70;19.03;;;12.60;99.90;;;;;;5031015;28;20241;-72
2023/10/26 08:33:07;;;;;;;28.03;19.93;;;12.70;99.90;;;;;;5030949;28;20207;-72
2023/10/26 08:35:32;;;;;;;29.87;20.73;;;12.80;99.90;;;;;;5030841;28;20210;-72
2023/10/26 08:37:58;;;;;;;26.37;18.37;;;13.00;99.90;;;;;;5031464;28;20257;-72
2023/10/26 08:40:24;;;;;;;26.90;18.90;;;13.10;99.90;;;;;;5031372;28;20609;-72
2023/10/26 08:42:50;;;;;;;27.10;19.07;;;13.00;99.90;;;;;;5031029;28;20195;-72
2023/10/26 08:45:24;;;;;;;27.10;19.60;;;12.90;99.90;;;;;;5030562;28;20172;-72
2023/10/26 08:47:51;;;;;;;26.63;18.70;;;12.80;99.90;;;;;;5030987;28;20584;-72
2023/10/26 08:50:21;;;;;;;26.03;19.53;;;12.60;99.90;;;;;;5030951;28;20294;-72
2023/10/26 08:52:48;;;;;;;26.47;19.03;;;12.60;99.90;;;;;;5030948;28;20539;-72
2023/10/26 08:55:14;;;;;;;27.33;19.83;;;12.60;99.90;;;;;;5030634;28;20163;-72
2023/10/26 08:57:51;;;;;;;31.80;20.87;;;12.60;99.90;;;;;;5034930;28;20178;-72
2023/10/26 09:00:18;;;;;;;26.73;18.60;;;12.70;99.90;;;;;;5034984;28;20183;-72
2023/10/26 09:02:44;;;;;;;29.73;20.10;;;12.90;99.90;;;;;;5034856;28;20167;-72
2023/10/26 09:05:10;;;;;;;28.30;20.27;;;13.10;99.90;;;;;;5033747;28;20221;-72
2023/10/26 09:07:36;;;;;;;27.03;19.50;;;13.20;99.90;;;;;;5034765;28;20183;-72
2023/10/26 09:10:02;;;;;;;29.17;23.53;;;13.40;99.90;;;;;;5034724;28;20258;-72
2023/10/26 09:12:28;;;;;;;23.47;18.93;;;13.70;99.90;;;;;;5034905;28;20183;-72
2023/10/26 09:15:01;;;;;;;24.27;19.07;;;13.80;99.90;;;;;;5034634;28;20755;-72
2023/10/26 09:17:28;;;;;;;22.23;18.37;;;14.00;99.90;;;;;;5034517;28;20249;-72
2023/10/26 09:19:54;;;;;;;22.80;18.30;;;14.00;99.90;;;;;;5034825;28;20176;-72
2023/10/26 09:22:37;;;;;;;22.77;17.17;;;14.00;99.90;;;;;;5034673;28;20640;-71
2023/10/26 09:25:07;;;;;;;21.43;18.17;;;14.00;99.90;;;;;;5034491;28;20249;-71
2023/10/26 09:27:34;;;;;;;22.10;17.53;;;13.90;99.90;;;;;;5034552;28;20168;-71
2023/10/26 09:30:00;;;;;;;26.23;19.87;;;13.90;99.90;;;;;;5034452;28;20250;-71
2023/10/26 09:32:35;;;;;;;24.10;20.33;;;14.00;99.90;;;;;;5034619;28;20211;-71
2023/10/26 09:35:03;;;;;;;23.53;18.97;;;14.10;99.90;;;;;;5034331;28;20171;-71
2023/10/26 09:37:29;;;;;;;26.03;19.97;;;14.10;99.90;;;;;;5034206;28;20649;-72
2023/10/26 09:39:57;;;;;;;23.73;19.10;;;14.20;99.90;;;;;;5034703;28;20179;-71
2023/10/26 09:42:25;;;;;;;23.33;19.40;;;14.40;99.90;;;;;;5034332;28;20179;-72
2023/10/26 09:44:51;;;;;;;24.47;18.80;;;14.60;99.90;;;;;;5033335;28;20203;-72
2023/10/26 09:47:17;;;;;;;21.73;18.57;;;14.80;99.90;;;;;;5033301;28;20206;-72
2023/10/26 09:49:43;;;;;;;21.87;18.20;;;14.80;99.90;;;;;;5034073;28;20276;-73
2023/10/26 09:52:08;;;;;;;23.43;19.50;;;15.00;99.90;;;;;;5034299;28;20640;-71
2023/10/26 09:54:40;;;;;;;22.30;18.10;;;15.20;99.90;;;;;;5033736;28;20195;-71
2023/10/26 09:57:29;;;;;;;20.47;17.40;;;15.20;99.90;;;;;;5034164;28;20167;-71
2023/10/26 09:59:54;;;;;;;20.50;16.60;;;15.30;99.90;;;;;;5033774;28;20171;-72
2023/10/26 10:02:20;;;;;;;21.03;18.80;;;15.40;99.90;;;;;;5034002;28;20179;-72
2023/10/26 10:04:47;;;;;;;21.60;17.13;;;15.60;99.90;;;;;;5033528;28;20219;-72
2023/10/26 10:07:17;;;;;;;20.90;16.93;;;15.70;99.90;;;;;;5032858;28;20249;-72
2023/10/26 10:10:00;;;;;;;20.27;17.23;;;15.70;99.90;;;;;;5033699;28;20198;-72
2023/10/26 10:12:26;;;;;;;19.03;16.10;;;15.60;99.90;;;;;;5033611;28;20667;-72
2023/10/26 10:14:52;;;;;;;18.57;15.47;;;15.50;99.90;;;;;;5033401;28;20282;-72
2023/10/26 10:17:18;;;;;;;16.87;14.93;;;15.50;99.90;;;;;;5032970;28;20195;-72
2023/10/26 10:19:48;;;;;;;21.10;17.17;;;15.60;99.90;;;;;;5033417;28;20183;-72
2023/10/26 10:22:38;;;;;;;19.13;14.97;;;15.80;99.90;;;;;;5033664;28;20180;-72
2023/10/26 10:25:10;;;;;;;20.73;16.07;;;16.00;99.90;;;;;;5033575;28;20179;-72
2023/10/26 10:27:40;;;;;;;16.60;14.87;;;16.30;99.90;;;;;;5033453;28;20655;-72
2023/10/26 10:30:11;;;;;;;18.23;16.07;;;16.60;99.90;;;;;;5033379;28;20202;-72
2023/10/26 10:32:46;;;;;;;16.80;15.00;;;16.90;99.90;;;;;;5032075;28;20187;-72
2023/10/26 10:35:29;;;;;;;16.57;14.17;;;16.80;99.90;;;;;;5031565;28;20710;-72
2023/10/26 10:38:13;;;;;;;18.83;13.60;;;17.00;99.90;;;;;;5033501;28;20176;-72
2023/10/26 10:40:54;;;;;;;15.67;13.27;;;17.00;99.90;;;;;;5031776;28;20183;-72
2023/10/26 10:43:49;;;;;;;15.17;11.67;;;17.10;99.90;;;;;;5033107;28;20218;-72
2023/10/26 10:46:20;;;;;;;14.63;13.03;;;17.50;99.90;;;;;;5024284;28;20192;-72
2023/10/26 10:49:03;;;;;;;15.10;13.47;;;17.60;99.90;;;;;;5033173;28;20171;-72
2023/10/26 10:51:37;;;;;;;14.37;12.90;;;17.50;99.90;;;;;;5032857;28;20211;-72
2023/10/26 10:54:13;;;;;;;16.20;12.43;;;17.30;99.90;;;;;;5031627;28;20269;-71
2023/10/26 10:56:44;;;;;;;15.60;12.23;;;16.80;99.90;;;;;;5032904;28;20307;-71
2023/10/26 10:59:26;;;;;;;14.63;11.87;;;16.60;99.90;;;;;;5032585;28;20302;-71
2023/10/26 11:02:11;;;;;;;14.50;12.97;;;16.40;99.90;;;;;;5032773;28;20205;-72
2023/10/26 11:04:56;;;;;;;11.70;10.53;;;16.00;99.90;;;;;;5032216;28;20207;-71
2023/10/26 11:07:26;;;;;;;13.47;12.07;;;15.70;99.90;;;;;;5032581;28;20175;-71
2023/10/26 11:09:58;;;;;;;12.40;10.50;;;15.50;99.90;;;;;;5032045;28;20195;-71
2023/10/26 11:12:25;;;;;;;11.27;9.40;;;15.50;99.90;;;;;;5032700;28;20609;-71
2023/10/26 11:14:52;;;;;;;10.63;8.60;;;15.50;99.90;;;;;;5032028;28;20187;-71
2023/10/26 11:17:19;;;;;;;9.70;8.53;;;15.30;99.90;;;;;;5032508;28;20168;-72
2023/10/26 11:19:45;;;;;;;9.40;8.47;;;15.20;99.90;;;;;;5031740;28;20168;-72
2023/10/26 11:22:13;;;;;;;14.53;11.30;;;15.30;99.90;;;;;;5035267;28;20201;-71
2023/10/26 11:24:39;;;;;;;17.83;12.27;;;15.20;99.90;;;;;;5036123;28;20649;-73
2023/10/26 11:27:12;;;;;;;14.77;12.63;;;15.20;99.90;;;;;;5033238;28;20191;-74
2023/10/26 11:29:38;;;;;;;14.17;12.73;;;15.10;99.90;;;;;;5032086;28;20237;-73
2023/10/26 11:32:16;;;;;;;14.37;12.87;;;15.00;99.90;;;;;;5032260;28;20242;-72
2023/10/26 11:35:09;;;;;;;15.30;12.73;;;14.90;99.90;;;;;;5031770;28;20623;-73
2023/10/26 11:37:40;;;;;;;14.37;12.87;;;14.90;99.90;;;;;;5026335;28;20191;-72
2023/10/26 11:40:07;;;;;;;16.67;12.73;;;15.10;99.90;;;;;;5031993;28;20179;-72
2023/10/26 11:42:48;;;;;;;15.10;12.53;;;15.20;99.90;;;;;;5031856;28;20172;-73
2023/10/26 11:45:21;;;;;;;16.40;12.63;;;15.30;99.90;;;;;;5031740;28;20198;-72
2023/10/26 11:47:55;;;;;;;12.60;11.30;;;15.40;99.90;;;;;;5032039;28;20183;-72
2023/10/26 11:50:24;;;;;;;13.20;11.90;;;15.60;99.90;;;;;;5031983;28;20214;-72
2023/10/26 11:53:01;;;;;;;12.80;11.50;;;15.50;99.90;;;;;;5031944;28;20198;-73
2023/10/26 11:55:29;;;;;;;12.13;10.93;;;15.50;99.90;;;;;;5031133;28;20236;-72
2023/10/26 11:57:56;;;;;;;13.13;11.03;;;15.40;99.90;;;;;;5031617;28;20171;-73
2023/10/26 12:00:22;;;;;;;12.07;10.87;;;15.30;99.90;;;;;;5031793;28;20212;-72
2023/10/26 12:02:48;;;;;;;10.60;9.50;;;15.30;99.90;;;;;;5031342;28;20222;-71
2023/10/26 12:05:15;;;;;;;12.60;11.30;;;15.30;99.90;;;;;;5031173;28;20541;-71
2023/10/26 12:07:45;;;;;;;11.40;10.30;;;15.20;99.90;;;;;;5031630;28;20190;-73
2023/10/26 12:10:11;;;;;;;11.23;10.13;;;15.20;99.90;;;;;;5031445;28;20207;-71
2023/10/26 12:12:37;;;;;;;11.80;10.60;;;15.10;99.90;;;;;;5031356;28;20180;-71
2023/10/26 12:15:04;;;;;;;12.10;10.80;;;15.10;99.90;;;;;;5031609;28;20608;-72
2023/10/26 12:17:30;;;;;;;12.67;11.37;;;15.00;99.90;;;;;;5031364;28;20177;-71
2023/10/26 12:19:55;;;;;;;14.77;11.73;;;15.00;99.90;;;;;;5030859;28;20297;-71
2023/10/26 12:22:21;;;;;;;13.30;11.53;;;15.10;99.90;;;;;;5031564;28;20179;-72
2023/10/26 12:24:46;;;;;;;14.00;12.53;;;15.10;99.90;;;;;;5031208;28;20723;-71
2023/10/26 12:27:16;;;;;;;15.67;14.07;;;15.00;99.90;;;;;;5031375;28;20167;-71
2023/10/26 12:29:42;;;;;;;15.30;12.60;;;14.80;99.90;;;;;;5030954;28;20203;-73